sensor_id;sensor_type;location;lat;lon;timestamp;P1;durP1;ratioP1;P2;durP2;ratioP2
39434;SDS011;66825;51.880;-0.518;2023-07-28T00:01:55;0.32;;;0.30;;
39434;SDS011;66825;51.880;-0.518;2023-07-28T00:04:20;0.30;;;0.30;;
39434;SDS011;66825;51.880;-0.518;2023-07-28T00:06:45;0.22;;;0.20;;
39434;SDS011;66825;51.880;-0.518;2023-07-28T00:09:11;0.30;;;0.30;;
39434;SDS011;66825;51.880;-0.518;2023-07-28T00:11:36;0.30;;;0.30;;
39434;SDS011;66825;51.880;-0.518;2023-07-28T00:14:02;0.30;;;0.30;;
39434;SDS011;66825;51.880;-0.518;2023-07-28T00:16:27;0.40;;;0.30;;
39434;SDS011;66825;51.880;-0.518;2023-07-28T00:18:52;0.50;;;0.43;;
39434;SDS011;66825;51.880;-0.518;2023-07-28T00:21:18;1.85;;;0.30;;
39434;SDS011;66825;51.880;-0.518;2023-07-28T00:23:43;0.35;;;0.30;;
39434;SDS011;66825;51.880;-0.518;2023-07-28T00:26:09;0.52;;;0.40;;
39434;SDS011;66825;51.880;-0.518;2023-07-28T00:28:34;0.32;;;0.25;;
39434;SDS011;66825;51.880;-0.518;2023-07-28T00:31:00;1.30;;;0.40;;
39434;SDS011;66825;51.880;-0.518;2023-07-28T00:33:25;0.60;;;0.40;;
39434;SDS011;66825;51.880;-0.518;2023-07-28T00:35:50;0.38;;;0.30;;
39434;SDS011;66825;51.880;-0.518;2023-07-28T00:38:16;0.65;;;0.32;;
39434;SDS011;66825;51.880;-0.518;2023-07-28T00:40:41;0.43;;;0.30;;
39434;SDS011;66825;51.880;-0.518;2023-07-28T00:43:07;0.40;;;0.30;;
39434;SDS011;66825;51.880;-0.518;2023-07-28T00:45:33;0.30;;;0.30;;
39434;SDS011;66825;51.880;-0.518;2023-07-28T00:47:59;0.90;;;0.30;;
39434;SDS011;66825;51.880;-0.518;2023-07-28T00:50:25;0.38;;;0.38;;
39434;SDS011;66825;51.880;-0.518;2023-07-28T00:52:51;0.45;;;0.40;;
39434;SDS011;66825;51.880;-0.518;2023-07-28T00:55:17;0.20;;;0.20;;
39434;SDS011;66825;51.880;-0.518;2023-07-28T00:57:43;0.30;;;0.30;;
39434;SDS011;66825;51.880;-0.518;2023-07-28T01:00:09;0.50;;;0.30;;
39434;SDS011;66825;51.880;-0.518;2023-07-28T01:02:35;0.40;;;0.30;;
39434;SDS011;66825;51.880;-0.518;2023-07-28T01:05:01;0.50;;;0.30;;
39434;SDS011;66825;51.880;-0.518;2023-07-28T01:10:10;0.30;;;0.30;;
39434;SDS011;66825;51.880;-0.518;2023-07-28T01:12:39;0.30;;;0.30;;
39434;SDS011;66825;51.880;-0.518;2023-07-28T01:15:05;0.30;;;0.30;;
39434;SDS011;66825;51.880;-0.518;2023-07-28T01:17:32;0.30;;;0.30;;
39434;SDS011;66825;51.880;-0.518;2023-07-28T01:19:57;0.30;;;0.30;;
39434;SDS011;66825;51.880;-0.518;2023-07-28T01:28:15;0.38;;;0.30;;
39434;SDS011;66825;51.880;-0.518;2023-07-28T01:30:42;0.32;;;0.30;;
39434;SDS011;66825;51.880;-0.518;2023-07-28T01:33:08;0.40;;;0.40;;
39434;SDS011;66825;51.880;-0.518;2023-07-28T01:35:35;0.38;;;0.30;;
39434;SDS011;66825;51.880;-0.518;2023-07-28T01:38:01;0.50;;;0.30;;
39434;SDS011;66825;51.880;-0.518;2023-07-28T01:40:26;0.30;;;0.30;;
39434;SDS011;66825;51.880;-0.518;2023-07-28T01:42:52;0.32;;;0.32;;
39434;SDS011;66825;51.880;-0.518;2023-07-28T01:45:17;0.52;;;0.50;;
39434;SDS011;66825;51.880;-0.518;2023-07-28T01:47:43;0.30;;;0.20;;
39434;SDS011;66825;51.880;-0.518;2023-07-28T01:50:08;0.30;;;0.22;;
39434;SDS011;66825;51.880;-0.518;2023-07-28T01:52:34;0.40;;;0.30;;
39434;SDS011;66825;51.880;-0.518;2023-07-28T01:54:59;0.50;;;0.45;;
39434;SDS011;66825;51.880;-0.518;2023-07-28T01:57:25;0.50;;;0.30;;
39434;SDS011;66825;51.880;-0.518;2023-07-28T01:59:52;0.30;;;0.30;;
39434;SDS011;66825;51.880;-0.518;2023-07-28T02:02:18;0.40;;;0.30;;
39434;SDS011;66825;51.880;-0.518;2023-07-28T02:04:44;0.30;;;0.30;;
39434;SDS011;66825;51.880;-0.518;2023-07-28T02:07:09;0.55;;;0.30;;
39434;SDS011;66825;51.880;-0.518;2023-07-28T02:09:35;0.30;;;0.30;;
39434;SDS011;66825;51.880;-0.518;2023-07-28T02:12:00;0.60;;;0.30;;
39434;SDS011;66825;51.880;-0.518;2023-07-28T02:14:26;0.35;;;0.30;;
39434;SDS011;66825;51.880;-0.518;2023-07-28T02:16:51;0.30;;;0.30;;
39434;SDS011;66825;51.880;-0.518;2023-07-28T02:19:16;0.40;;;0.30;;
39434;SDS011;66825;51.880;-0.518;2023-07-28T02:21:42;1.13;;;0.30;;
39434;SDS011;66825;51.880;-0.518;2023-07-28T02:24:07;0.22;;;0.20;;
39434;SDS011;66825;51.880;-0.518;2023-07-28T02:26:33;0.50;;;0.38;;
39434;SDS011;66825;51.880;-0.518;2023-07-28T02:28:58;0.30;;;0.30;;
39434;SDS011;66825;51.880;-0.518;2023-07-28T02:31:24;0.50;;;0.40;;
39434;SDS011;66825;51.880;-0.518;2023-07-28T02:33:49;0.28;;;0.20;;
39434;SDS011;66825;51.880;-0.518;2023-07-28T02:36:14;0.40;;;0.30;;
39434;SDS011;66825;51.880;-0.518;2023-07-28T02:38:40;0.47;;;0.40;;
39434;SDS011;66825;51.880;-0.518;2023-07-28T02:41:05;0.38;;;0.25;;
39434;SDS011;66825;51.880;-0.518;2023-07-28T02:43:31;0.20;;;0.20;;
39434;SDS011;66825;51.880;-0.518;2023-07-28T02:45:57;0.40;;;0.30;;
39434;SDS011;66825;51.880;-0.518;2023-07-28T02:48:23;0.43;;;0.30;;
39434;SDS011;66825;51.880;-0.518;2023-07-28T02:50:50;0.40;;;0.30;;
39434;SDS011;66825;51.880;-0.518;2023-07-28T02:53:16;0.45;;;0.35;;
39434;SDS011;66825;51.880;-0.518;2023-07-28T02:55:42;0.20;;;0.20;;
39434;SDS011;66825;51.880;-0.518;2023-07-28T02:58:08;0.40;;;0.40;;
39434;SDS011;66825;51.880;-0.518;2023-07-28T03:00:36;1.85;;;0.30;;
39434;SDS011;66825;51.880;-0.518;2023-07-28T03:03:03;0.40;;;0.30;;
39434;SDS011;66825;51.880;-0.518;2023-07-28T03:05:30;0.30;;;0.20;;
39434;SDS011;66825;51.880;-0.518;2023-07-28T03:07:56;0.55;;;0.30;;
39434;SDS011;66825;51.880;-0.518;2023-07-28T03:10:22;0.35;;;0.35;;
39434;SDS011;66825;51.880;-0.518;2023-07-28T03:12:47;0.40;;;0.30;;
39434;SDS011;66825;51.880;-0.518;2023-07-28T03:15:12;0.22;;;0.20;;
39434;SDS011;66825;51.880;-0.518;2023-07-28T03:17:38;0.30;;;0.30;;
39434;SDS011;66825;51.880;-0.518;2023-07-28T03:20:04;0.40;;;0.30;;
39434;SDS011;66825;51.880;-0.518;2023-07-28T03:22:30;0.35;;;0.32;;
39434;SDS011;66825;51.880;-0.518;2023-07-28T03:24:56;0.40;;;0.30;;
39434;SDS011;66825;51.880;-0.518;2023-07-28T03:27:21;0.30;;;0.30;;
39434;SDS011;66825;51.880;-0.518;2023-07-28T03:29:47;0.35;;;0.30;;
39434;SDS011;66825;51.880;-0.518;2023-07-28T03:32:12;0.32;;;0.30;;
39434;SDS011;66825;51.880;-0.518;2023-07-28T03:34:38;0.30;;;0.30;;
39434;SDS011;66825;51.880;-0.518;2023-07-28T03:37:03;0.40;;;0.40;;
39434;SDS011;66825;51.880;-0.518;2023-07-28T03:39:29;0.40;;;0.30;;
39434;SDS011;66825;51.880;-0.518;2023-07-28T03:41:56;0.50;;;0.38;;
39434;SDS011;66825;51.880;-0.518;2023-07-28T03:44:21;0.30;;;0.30;;
39434;SDS011;66825;51.880;-0.518;2023-07-28T03:46:47;0.40;;;0.30;;
39434;SDS011;66825;51.880;-0.518;2023-07-28T03:49:12;0.30;;;0.30;;
39434;SDS011;66825;51.880;-0.518;2023-07-28T03:51:38;0.40;;;0.35;;
39434;SDS011;66825;51.880;-0.518;2023-07-28T03:54:03;0.50;;;0.38;;
39434;SDS011;66825;51.880;-0.518;2023-07-28T03:56:29;0.28;;;0.22;;
39434;SDS011;66825;51.880;-0.518;2023-07-28T03:58:54;0.30;;;0.30;;
39434;SDS011;66825;51.880;-0.518;2023-07-28T04:01:20;0.40;;;0.30;;
39434;SDS011;66825;51.880;-0.518;2023-07-28T04:03:46;0.35;;;0.30;;
39434;SDS011;66825;51.880;-0.518;2023-07-28T04:06:12;0.57;;;0.30;;
39434;SDS011;66825;51.880;-0.518;2023-07-28T04:08:39;0.50;;;0.40;;
39434;SDS011;66825;51.880;-0.518;2023-07-28T04:11:05;0.50;;;0.40;;
39434;SDS011;66825;51.880;-0.518;2023-07-28T04:13:31;0.40;;;0.40;;
39434;SDS011;66825;51.880;-0.518;2023-07-28T04:15:57;0.45;;;0.30;;
39434;SDS011;66825;51.880;-0.518;2023-07-28T04:18:23;0.30;;;0.30;;
39434;SDS011;66825;51.880;-0.518;2023-07-28T04:20:48;0.63;;;0.30;;
39434;SDS011;66825;51.880;-0.518;2023-07-28T04:23:14;0.30;;;0.30;;
39434;SDS011;66825;51.880;-0.518;2023-07-28T04:25:39;0.30;;;0.20;;
39434;SDS011;66825;51.880;-0.518;2023-07-28T04:28:05;1.30;;;0.40;;
39434;SDS011;66825;51.880;-0.518;2023-07-28T04:30:30;0.40;;;0.30;;
39434;SDS011;66825;51.880;-0.518;2023-07-28T04:32:56;0.52;;;0.40;;
39434;SDS011;66825;51.880;-0.518;2023-07-28T04:35:21;0.35;;;0.35;;
39434;SDS011;66825;51.880;-0.518;2023-07-28T04:37:46;0.32;;;0.30;;
39434;SDS011;66825;51.880;-0.518;2023-07-28T04:40:12;0.22;;;0.22;;
39434;SDS011;66825;51.880;-0.518;2023-07-28T04:42:38;0.40;;;0.30;;
39434;SDS011;66825;51.880;-0.518;2023-07-28T04:45:03;0.20;;;0.20;;
39434;SDS011;66825;51.880;-0.518;2023-07-28T04:47:30;0.30;;;0.30;;
39434;SDS011;66825;51.880;-0.518;2023-07-28T04:49:55;0.82;;;0.40;;
39434;SDS011;66825;51.880;-0.518;2023-07-28T04:52:21;0.30;;;0.30;;
39434;SDS011;66825;51.880;-0.518;2023-07-28T04:54:46;0.28;;;0.28;;
39434;SDS011;66825;51.880;-0.518;2023-07-28T04:57:12;0.38;;;0.30;;
39434;SDS011;66825;51.880;-0.518;2023-07-28T04:59:37;0.50;;;0.40;;
39434;SDS011;66825;51.880;-0.518;2023-07-28T05:02:03;0.65;;;0.30;;
39434;SDS011;66825;51.880;-0.518;2023-07-28T05:04:29;0.40;;;0.30;;
39434;SDS011;66825;51.880;-0.518;2023-07-28T05:06:54;0.30;;;0.30;;
39434;SDS011;66825;51.880;-0.518;2023-07-28T05:09:20;0.40;;;0.30;;
39434;SDS011;66825;51.880;-0.518;2023-07-28T05:11:45;0.65;;;0.35;;
39434;SDS011;66825;51.880;-0.518;2023-07-28T05:14:11;0.35;;;0.30;;
39434;SDS011;66825;51.880;-0.518;2023-07-28T05:16:36;0.30;;;0.30;;
39434;SDS011;66825;51.880;-0.518;2023-07-28T05:19:05;0.30;;;0.30;;
39434;SDS011;66825;51.880;-0.518;2023-07-28T05:21:31;0.65;;;0.40;;
39434;SDS011;66825;51.880;-0.518;2023-07-28T05:23:57;0.70;;;0.40;;
39434;SDS011;66825;51.880;-0.518;2023-07-28T05:26:22;0.52;;;0.40;;
39434;SDS011;66825;51.880;-0.518;2023-07-28T05:28:48;0.43;;;0.35;;
39434;SDS011;66825;51.880;-0.518;2023-07-28T05:31:13;0.47;;;0.35;;
39434;SDS011;66825;51.880;-0.518;2023-07-28T05:33:40;0.40;;;0.30;;
39434;SDS011;66825;51.880;-0.518;2023-07-28T05:36:06;0.40;;;0.28;;
39434;SDS011;66825;51.880;-0.518;2023-07-28T05:38:31;0.50;;;0.45;;
39434;SDS011;66825;51.880;-0.518;2023-07-28T05:41:00;0.40;;;0.40;;
39434;SDS011;66825;51.880;-0.518;2023-07-28T05:43:28;0.40;;;0.40;;
39434;SDS011;66825;51.880;-0.518;2023-07-28T05:45:57;0.40;;;0.30;;
39434;SDS011;66825;51.880;-0.518;2023-07-28T05:48:23;0.77;;;0.47;;
39434;SDS011;66825;51.880;-0.518;2023-07-28T05:50:49;0.50;;;0.40;;
39434;SDS011;66825;51.880;-0.518;2023-07-28T05:53:16;0.40;;;0.40;;
39434;SDS011;66825;51.880;-0.518;2023-07-28T05:55:42;0.30;;;0.30;;
39434;SDS011;66825;51.880;-0.518;2023-07-28T05:58:07;0.45;;;0.40;;
39434;SDS011;66825;51.880;-0.518;2023-07-28T06:00:33;0.40;;;0.40;;
39434;SDS011;66825;51.880;-0.518;2023-07-28T06:02:58;0.20;;;0.20;;
39434;SDS011;66825;51.880;-0.518;2023-07-28T06:05:23;0.50;;;0.40;;
39434;SDS011;66825;51.880;-0.518;2023-07-28T06:07:49;0.40;;;0.40;;
39434;SDS011;66825;51.880;-0.518;2023-07-28T06:10:14;0.60;;;0.50;;
39434;SDS011;66825;51.880;-0.518;2023-07-28T06:12:40;0.40;;;0.40;;
39434;SDS011;66825;51.880;-0.518;2023-07-28T06:15:06;0.65;;;0.55;;
39434;SDS011;66825;51.880;-0.518;2023-07-28T06:17:32;0.40;;;0.32;;
39434;SDS011;66825;51.880;-0.518;2023-07-28T06:19:58;0.68;;;0.50;;
39434;SDS011;66825;51.880;-0.518;2023-07-28T06:22:23;0.50;;;0.40;;
39434;SDS011;66825;51.880;-0.518;2023-07-28T06:24:49;0.90;;;0.60;;
39434;SDS011;66825;51.880;-0.518;2023-07-28T06:27:15;0.50;;;0.50;;
39434;SDS011;66825;51.880;-0.518;2023-07-28T06:29:41;0.60;;;0.50;;
39434;SDS011;66825;51.880;-0.518;2023-07-28T06:32:06;0.70;;;0.60;;
39434;SDS011;66825;51.880;-0.518;2023-07-28T06:34:32;0.95;;;0.63;;
39434;SDS011;66825;51.880;-0.518;2023-07-28T06:36:58;0.70;;;0.70;;
39434;SDS011;66825;51.880;-0.518;2023-07-28T06:39:23;0.98;;;0.70;;
39434;SDS011;66825;51.880;-0.518;2023-07-28T06:41:50;0.70;;;0.70;;
39434;SDS011;66825;51.880;-0.518;2023-07-28T06:44:15;1.35;;;0.80;;
39434;SDS011;66825;51.880;-0.518;2023-07-28T06:46:41;0.65;;;0.63;;
39434;SDS011;66825;51.880;-0.518;2023-07-28T06:49:07;1.70;;;0.82;;
39434;SDS011;66825;51.880;-0.518;2023-07-28T06:51:32;0.85;;;0.73;;
39434;SDS011;66825;51.880;-0.518;2023-07-28T06:53:58;1.05;;;0.93;;
39434;SDS011;66825;51.880;-0.518;2023-07-28T06:56:24;0.70;;;0.70;;
39434;SDS011;66825;51.880;-0.518;2023-07-28T06:58:51;0.70;;;0.70;;
39434;SDS011;66825;51.880;-0.518;2023-07-28T07:01:16;1.02;;;0.93;;
39434;SDS011;66825;51.880;-0.518;2023-07-28T07:03:43;0.77;;;0.77;;
39434;SDS011;66825;51.880;-0.518;2023-07-28T07:06:08;0.98;;;0.80;;
39434;SDS011;66825;51.880;-0.518;2023-07-28T07:08:34;1.10;;;0.93;;
39434;SDS011;66825;51.880;-0.518;2023-07-28T07:10:59;0.98;;;0.90;;
39434;SDS011;66825;51.880;-0.518;2023-07-28T07:13:25;0.90;;;0.90;;
39434;SDS011;66825;51.880;-0.518;2023-07-28T07:15:51;1.10;;;1.00;;
39434;SDS011;66825;51.880;-0.518;2023-07-28T07:18:16;1.05;;;0.90;;
39434;SDS011;66825;51.880;-0.518;2023-07-28T07:20:42;1.10;;;1.00;;
39434;SDS011;66825;51.880;-0.518;2023-07-28T07:23:07;1.30;;;1.13;;
39434;SDS011;66825;51.880;-0.518;2023-07-28T07:25:33;1.30;;;1.20;;
39434;SDS011;66825;51.880;-0.518;2023-07-28T07:27:58;0.90;;;0.80;;
39434;SDS011;66825;51.880;-0.518;2023-07-28T07:30:24;1.10;;;1.00;;
39434;SDS011;66825;51.880;-0.518;2023-07-28T07:32:49;1.73;;;1.00;;
39434;SDS011;66825;51.880;-0.518;2023-07-28T07:35:15;1.17;;;1.02;;
39434;SDS011;66825;51.880;-0.518;2023-07-28T07:37:41;1.00;;;0.90;;
39434;SDS011;66825;51.880;-0.518;2023-07-28T07:40:06;1.75;;;1.20;;
39434;SDS011;66825;51.880;-0.518;2023-07-28T07:42:46;1.20;;;1.00;;
39434;SDS011;66825;51.880;-0.518;2023-07-28T07:45:12;1.20;;;1.10;;
39434;SDS011;66825;51.880;-0.518;2023-07-28T07:47:39;1.13;;;1.02;;
39434;SDS011;66825;51.880;-0.518;2023-07-28T07:50:05;2.00;;;0.98;;
39434;SDS011;66825;51.880;-0.518;2023-07-28T07:52:34;1.10;;;1.00;;
39434;SDS011;66825;51.880;-0.518;2023-07-28T07:55:00;1.70;;;1.23;;
39434;SDS011;66825;51.880;-0.518;2023-07-28T07:57:26;1.40;;;1.30;;
39434;SDS011;66825;51.880;-0.518;2023-07-28T07:59:52;1.50;;;1.40;;
39434;SDS011;66825;51.880;-0.518;2023-07-28T08:02:17;1.75;;;1.38;;
39434;SDS011;66825;51.880;-0.518;2023-07-28T08:04:42;2.25;;;1.50;;
39434;SDS011;66825;51.880;-0.518;2023-07-28T08:07:08;2.00;;;1.38;;
39434;SDS011;66825;51.880;-0.518;2023-07-28T08:09:34;2.20;;;1.50;;
39434;SDS011;66825;51.880;-0.518;2023-07-28T08:11:59;1.90;;;1.58;;
39434;SDS011;66825;51.880;-0.518;2023-07-28T08:14:25;1.77;;;1.17;;
39434;SDS011;66825;51.880;-0.518;2023-07-28T08:16:51;1.60;;;1.30;;
39434;SDS011;66825;51.880;-0.518;2023-07-28T08:19:16;1.60;;;1.10;;
39434;SDS011;66825;51.880;-0.518;2023-07-28T08:21:42;3.58;;;1.50;;
39434;SDS011;66825;51.880;-0.518;2023-07-28T08:24:07;1.88;;;1.17;;
39434;SDS011;66825;51.880;-0.518;2023-07-28T08:26:33;1.65;;;1.35;;
39434;SDS011;66825;51.880;-0.518;2023-07-28T08:28:59;2.80;;;1.10;;
39434;SDS011;66825;51.880;-0.518;2023-07-28T08:31:24;2.30;;;1.00;;
39434;SDS011;66825;51.880;-0.518;2023-07-28T08:33:50;1.60;;;1.20;;
39434;SDS011;66825;51.880;-0.518;2023-07-28T08:36:15;2.20;;;1.20;;
39434;SDS011;66825;51.880;-0.518;2023-07-28T08:38:41;1.20;;;0.95;;
39434;SDS011;66825;51.880;-0.518;2023-07-28T08:41:06;2.22;;;1.00;;
39434;SDS011;66825;51.880;-0.518;2023-07-28T08:43:32;1.02;;;0.80;;
39434;SDS011;66825;51.880;-0.518;2023-07-28T08:45:57;2.38;;;0.80;;
39434;SDS011;66825;51.880;-0.518;2023-07-28T08:48:23;1.30;;;0.73;;
39434;SDS011;66825;51.880;-0.518;2023-07-28T08:50:49;0.85;;;0.63;;
39434;SDS011;66825;51.880;-0.518;2023-07-28T08:53:15;0.70;;;0.63;;
39434;SDS011;66825;51.880;-0.518;2023-07-28T08:55:42;0.90;;;0.63;;
39434;SDS011;66825;51.880;-0.518;2023-07-28T08:58:21;1.35;;;0.50;;
39434;SDS011;66825;51.880;-0.518;2023-07-28T09:00:47;1.20;;;0.50;;
39434;SDS011;66825;51.880;-0.518;2023-07-28T09:03:15;0.98;;;0.50;;
39434;SDS011;66825;51.880;-0.518;2023-07-28T09:05:42;0.70;;;0.43;;
39434;SDS011;66825;51.880;-0.518;2023-07-28T09:08:16;16.63;;;1.10;;
39434;SDS011;66825;51.880;-0.518;2023-07-28T09:10:43;2.03;;;0.52;;
39434;SDS011;66825;51.880;-0.518;2023-07-28T09:13:10;4.10;;;0.90;;
39434;SDS011;66825;51.880;-0.518;2023-07-28T09:15:37;1.13;;;0.73;;
39434;SDS011;66825;51.880;-0.518;2023-07-28T09:18:03;4.63;;;1.30;;
39434;SDS011;66825;51.880;-0.518;2023-07-28T09:20:35;4.28;;;0.70;;
39434;SDS011;66825;51.880;-0.518;2023-07-28T09:23:02;1.00;;;0.35;;
39434;SDS011;66825;51.880;-0.518;2023-07-28T09:25:29;1.13;;;0.40;;
39434;SDS011;66825;51.880;-0.518;2023-07-28T09:27:58;0.88;;;0.40;;
39434;SDS011;66825;51.880;-0.518;2023-07-28T09:30:23;0.77;;;0.40;;
39434;SDS011;66825;51.880;-0.518;2023-07-28T09:32:51;0.75;;;0.30;;
39434;SDS011;66825;51.880;-0.518;2023-07-28T09:35:21;3.00;;;0.30;;
39434;SDS011;66825;51.880;-0.518;2023-07-28T09:37:47;0.98;;;0.47;;
39434;SDS011;66825;51.880;-0.518;2023-07-28T09:40:19;1.58;;;0.45;;
39434;SDS011;66825;51.880;-0.518;2023-07-28T09:42:46;3.08;;;0.47;;
39434;SDS011;66825;51.880;-0.518;2023-07-28T09:45:16;3.75;;;0.50;;
39434;SDS011;66825;51.880;-0.518;2023-07-28T09:47:43;0.98;;;0.43;;
39434;SDS011;66825;51.880;-0.518;2023-07-28T09:50:10;1.40;;;0.47;;
39434;SDS011;66825;51.880;-0.518;2023-07-28T09:52:41;1.08;;;0.20;;
39434;SDS011;66825;51.880;-0.518;2023-07-28T09:55:08;2.30;;;0.70;;
39434;SDS011;66825;51.880;-0.518;2023-07-28T09:57:39;1.90;;;0.55;;
39434;SDS011;66825;51.880;-0.518;2023-07-28T10:00:10;0.90;;;0.43;;
39434;SDS011;66825;51.880;-0.518;2023-07-28T10:02:38;2.25;;;0.50;;
39434;SDS011;66825;51.880;-0.518;2023-07-28T10:05:05;1.92;;;0.47;;
39434;SDS011;66825;51.880;-0.518;2023-07-28T10:07:32;2.58;;;0.50;;
39434;SDS011;66825;51.880;-0.518;2023-07-28T10:10:05;0.80;;;0.40;;
39434;SDS011;66825;51.880;-0.518;2023-07-28T10:12:41;2.33;;;0.55;;
39434;SDS011;66825;51.880;-0.518;2023-07-28T10:15:15;1.50;;;0.50;;
39434;SDS011;66825;51.880;-0.518;2023-07-28T10:18:01;1.75;;;0.60;;
39434;SDS011;66825;51.880;-0.518;2023-07-28T10:20:27;2.17;;;0.63;;
39434;SDS011;66825;51.880;-0.518;2023-07-28T10:22:52;1.65;;;0.50;;
39434;SDS011;66825;51.880;-0.518;2023-07-28T10:25:22;1.00;;;0.50;;
39434;SDS011;66825;51.880;-0.518;2023-07-28T10:27:49;0.95;;;0.40;;
39434;SDS011;66825;51.880;-0.518;2023-07-28T10:30:15;1.50;;;0.43;;
39434;SDS011;66825;51.880;-0.518;2023-07-28T10:32:44;0.65;;;0.40;;
39434;SDS011;66825;51.880;-0.518;2023-07-28T10:37:45;1.45;;;0.50;;
39434;SDS011;66825;51.880;-0.518;2023-07-28T10:42:56;3.28;;;0.70;;
39434;SDS011;66825;51.880;-0.518;2023-07-28T10:45:24;6.38;;;1.35;;
39434;SDS011;66825;51.880;-0.518;2023-07-28T10:47:52;3.30;;;1.13;;
39434;SDS011;66825;51.880;-0.518;2023-07-28T10:50:20;4.07;;;1.40;;
39434;SDS011;66825;51.880;-0.518;2023-07-28T10:52:46;3.95;;;1.20;;
39434;SDS011;66825;51.880;-0.518;2023-07-28T10:55:13;3.22;;;1.13;;
39434;SDS011;66825;51.880;-0.518;2023-07-28T10:57:42;3.42;;;1.00;;
39434;SDS011;66825;51.880;-0.518;2023-07-28T11:00:09;2.55;;;0.90;;
39434;SDS011;66825;51.880;-0.518;2023-07-28T11:02:46;2.67;;;0.98;;
39434;SDS011;66825;51.880;-0.518;2023-07-28T11:10:18;2.40;;;0.90;;
39434;SDS011;66825;51.880;-0.518;2023-07-28T11:12:44;2.97;;;0.80;;
39434;SDS011;66825;51.880;-0.518;2023-07-28T11:15:12;1.48;;;0.70;;
39434;SDS011;66825;51.880;-0.518;2023-07-28T11:17:39;1.73;;;0.70;;
39434;SDS011;66825;51.880;-0.518;2023-07-28T11:20:15;2.00;;;0.80;;
39434;SDS011;66825;51.880;-0.518;2023-07-28T11:22:42;2.10;;;0.90;;
39434;SDS011;66825;51.880;-0.518;2023-07-28T11:25:11;4.82;;;0.80;;
39434;SDS011;66825;51.880;-0.518;2023-07-28T11:27:39;3.75;;;1.10;;
39434;SDS011;66825;51.880;-0.518;2023-07-28T11:30:08;6.00;;;1.30;;
39434;SDS011;66825;51.880;-0.518;2023-07-28T11:32:35;5.30;;;1.30;;
39434;SDS011;66825;51.880;-0.518;2023-07-28T11:35:05;2.33;;;0.98;;
39434;SDS011;66825;51.880;-0.518;2023-07-28T11:37:34;2.85;;;0.90;;
39434;SDS011;66825;51.880;-0.518;2023-07-28T11:40:01;2.47;;;0.93;;
39434;SDS011;66825;51.880;-0.518;2023-07-28T11:42:32;2.78;;;1.00;;
39434;SDS011;66825;51.880;-0.518;2023-07-28T11:45:00;2.85;;;1.00;;
39434;SDS011;66825;51.880;-0.518;2023-07-28T11:47:26;2.33;;;0.90;;
39434;SDS011;66825;51.880;-0.518;2023-07-28T11:49:51;3.33;;;1.00;;
39434;SDS011;66825;51.880;-0.518;2023-07-28T11:52:16;1.48;;;0.80;;
39434;SDS011;66825;51.880;-0.518;2023-07-28T11:54:43;2.15;;;0.80;;
39434;SDS011;66825;51.880;-0.518;2023-07-28T11:57:09;2.22;;;0.82;;
39434;SDS011;66825;51.880;-0.518;2023-07-28T11:59:35;1.88;;;0.80;;
39434;SDS011;66825;51.880;-0.518;2023-07-28T12:02:02;3.13;;;0.88;;
39434;SDS011;66825;51.880;-0.518;2023-07-28T12:04:30;1.98;;;0.77;;
39434;SDS011;66825;51.880;-0.518;2023-07-28T12:07:00;3.40;;;1.00;;
39434;SDS011;66825;51.880;-0.518;2023-07-28T12:09:46;2.13;;;1.08;;
39434;SDS011;66825;51.880;-0.518;2023-07-28T12:12:17;2.92;;;1.10;;
39434;SDS011;66825;51.880;-0.518;2023-07-28T12:14:46;3.05;;;0.95;;
39434;SDS011;66825;51.880;-0.518;2023-07-28T12:17:13;1.88;;;1.08;;
39434;SDS011;66825;51.880;-0.518;2023-07-28T12:19:42;2.58;;;1.02;;
39434;SDS011;66825;51.880;-0.518;2023-07-28T12:22:19;1.27;;;0.90;;
39434;SDS011;66825;51.880;-0.518;2023-07-28T12:24:45;2.20;;;0.95;;
39434;SDS011;66825;51.880;-0.518;2023-07-28T12:27:10;2.38;;;1.02;;
39434;SDS011;66825;51.880;-0.518;2023-07-28T12:29:38;3.67;;;1.00;;
39434;SDS011;66825;51.880;-0.518;2023-07-28T12:32:04;2.22;;;1.00;;
39434;SDS011;66825;51.880;-0.518;2023-07-28T12:34:29;3.78;;;1.20;;
39434;SDS011;66825;51.880;-0.518;2023-07-28T12:36:55;3.72;;;1.30;;
39434;SDS011;66825;51.880;-0.518;2023-07-28T12:39:21;5.68;;;1.50;;
39434;SDS011;66825;51.880;-0.518;2023-07-28T12:41:46;8.70;;;2.30;;
39434;SDS011;66825;51.880;-0.518;2023-07-28T12:44:12;6.20;;;2.00;;
39434;SDS011;66825;51.880;-0.518;2023-07-28T12:46:37;4.57;;;1.45;;
39434;SDS011;66825;51.880;-0.518;2023-07-28T12:49:03;3.00;;;1.20;;
39434;SDS011;66825;51.880;-0.518;2023-07-28T12:51:29;3.58;;;1.20;;
39434;SDS011;66825;51.880;-0.518;2023-07-28T12:53:55;3.72;;;1.60;;
39434;SDS011;66825;51.880;-0.518;2023-07-28T12:56:20;2.65;;;1.30;;
39434;SDS011;66825;51.880;-0.518;2023-07-28T12:58:46;2.33;;;1.17;;
39434;SDS011;66825;51.880;-0.518;2023-07-28T13:01:11;2.65;;;1.20;;
39434;SDS011;66825;51.880;-0.518;2023-07-28T13:03:37;3.65;;;1.15;;
39434;SDS011;66825;51.880;-0.518;2023-07-28T13:06:03;2.70;;;0.90;;
39434;SDS011;66825;51.880;-0.518;2023-07-28T13:08:29;2.10;;;0.90;;
39434;SDS011;66825;51.880;-0.518;2023-07-28T13:10:54;1.27;;;0.80;;
39434;SDS011;66825;51.880;-0.518;2023-07-28T13:13:20;4.10;;;0.93;;
39434;SDS011;66825;51.880;-0.518;2023-07-28T13:15:45;1.17;;;0.80;;
39434;SDS011;66825;51.880;-0.518;2023-07-28T13:18:11;1.13;;;0.60;;
39434;SDS011;66825;51.880;-0.518;2023-07-28T13:20:36;2.08;;;0.70;;
39434;SDS011;66825;51.880;-0.518;2023-07-28T13:23:02;2.17;;;0.82;;
39434;SDS011;66825;51.880;-0.518;2023-07-28T13:25:27;1.20;;;0.68;;
39434;SDS011;66825;51.880;-0.518;2023-07-28T13:27:53;3.20;;;1.35;;
39434;SDS011;66825;51.880;-0.518;2023-07-28T13:30:18;2.83;;;1.10;;
39434;SDS011;66825;51.880;-0.518;2023-07-28T13:32:43;6.35;;;1.20;;
39434;SDS011;66825;51.880;-0.518;2023-07-28T13:35:09;4.53;;;1.17;;
39434;SDS011;66825;51.880;-0.518;2023-07-28T13:37:34;4.57;;;1.08;;
39434;SDS011;66825;51.880;-0.518;2023-07-28T13:40:00;1.83;;;0.90;;
39434;SDS011;66825;51.880;-0.518;2023-07-28T13:42:25;1.20;;;0.80;;
39434;SDS011;66825;51.880;-0.518;2023-07-28T13:44:51;2.38;;;1.10;;
39434;SDS011;66825;51.880;-0.518;2023-07-28T13:47:16;1.35;;;0.80;;
39434;SDS011;66825;51.880;-0.518;2023-07-28T13:49:42;2.03;;;0.90;;
39434;SDS011;66825;51.880;-0.518;2023-07-28T13:52:07;3.80;;;1.20;;
39434;SDS011;66825;51.880;-0.518;2023-07-28T13:54:33;5.25;;;1.60;;
39434;SDS011;66825;51.880;-0.518;2023-07-28T13:56:58;5.03;;;1.50;;
39434;SDS011;66825;51.880;-0.518;2023-07-28T13:59:24;4.15;;;1.23;;
39434;SDS011;66825;51.880;-0.518;2023-07-28T14:01:49;1.95;;;0.82;;
39434;SDS011;66825;51.880;-0.518;2023-07-28T14:04:15;2.10;;;0.80;;
39434;SDS011;66825;51.880;-0.518;2023-07-28T14:06:40;3.80;;;1.02;;
39434;SDS011;66825;51.880;-0.518;2023-07-28T14:09:06;2.17;;;1.05;;
39434;SDS011;66825;51.880;-0.518;2023-07-28T14:11:31;2.35;;;0.85;;
39434;SDS011;66825;51.880;-0.518;2023-07-28T14:13:57;3.10;;;0.70;;
39434;SDS011;66825;51.880;-0.518;2023-07-28T14:16:22;1.73;;;0.90;;
39434;SDS011;66825;51.880;-0.518;2023-07-28T14:18:48;2.08;;;0.70;;
39434;SDS011;66825;51.880;-0.518;2023-07-28T14:21:15;4.25;;;1.40;;
39434;SDS011;66825;51.880;-0.518;2023-07-28T14:23:41;3.33;;;1.10;;
39434;SDS011;66825;51.880;-0.518;2023-07-28T14:26:06;2.38;;;0.90;;
39434;SDS011;66825;51.880;-0.518;2023-07-28T14:28:31;2.03;;;1.10;;
39434;SDS011;66825;51.880;-0.518;2023-07-28T14:30:57;2.55;;;0.95;;
39434;SDS011;66825;51.880;-0.518;2023-07-28T14:33:22;2.47;;;0.98;;
39434;SDS011;66825;51.880;-0.518;2023-07-28T14:35:48;9.13;;;2.53;;
39434;SDS011;66825;51.880;-0.518;2023-07-28T14:38:14;2.83;;;1.42;;
39434;SDS011;66825;51.880;-0.518;2023-07-28T14:40:41;3.05;;;1.00;;
39434;SDS011;66825;51.880;-0.518;2023-07-28T14:43:09;2.05;;;1.00;;
39434;SDS011;66825;51.880;-0.518;2023-07-28T14:45:34;2.67;;;1.00;;
39434;SDS011;66825;51.880;-0.518;2023-07-28T14:48:01;3.33;;;1.23;;